Time;durP1;ratioP1;P1;durP2;ratioP2;P2;SDS_P1;SDS_P2;PMS_P1;PMS_P2;Temp;Humidity;BMP_temperature;BMP_pressure;BME280_temperature;BME280_humidity;BME280_pressure;Samples;Min_cycle;Max_cycle;Signal;HPM_P1;HPM_P2
2022/03/20 00:01:05;;;;;;;31.52;13.85;;;5.70;86.10;;;;;;5012655;28;20034;-89
2022/03/20 00:03:32;;;;;;;26.63;14.15;;;5.60;85.90;;;;;;5010733;28;20026;-89
2022/03/20 00:05:59;;;;;;;28.50;13.82;;;5.50;86.20;;;;;;5009285;28;20035;-89
2022/03/20 00:08:26;;;;;;;36.60;13.95;;;5.50;86.80;;;;;;5009302;28;20039;-88
2022/03/20 00:10:54;;;;;;;33.20;14.63;;;5.40;86.90;;;;;;5009403;28;20034;-89
2022/03/20 00:13:22;;;;;;;35.80;15.50;;;5.40;87.00;;;;;;4993989;28;20022;-88
2022/03/20 00:15:50;;;;;;;34.17;14.38;;;5.30;87.80;;;;;;5015461;28;20038;-87
2022/03/20 00:18:20;;;;;;;33.30;14.95;;;5.20;87.80;;;;;;5011749;28;20097;-89
2022/03/20 00:20:57;;;;;;;27.48;13.23;;;5.20;88.00;;;;;;5017138;28;20036;-86
2022/03/20 00:23:24;;;;;;;29.35;14.35;;;5.20;87.10;;;;;;5018143;28;20023;-87
2022/03/20 00:25:51;;;;;;;32.47;14.10;;;5.10;87.50;;;;;;5017484;28;20026;-86
2022/03/20 00:28:20;;;;;;;26.75;13.32;;;5.10;87.10;;;;;;5014380;28;20038;-88
2022/03/20 00:30:47;;;;;;;28.52;13.30;;;5.10;85.20;;;;;;5014093;28;20072;-88
2022/03/20 00:33:13;;;;;;;28.08;13.18;;;5.10;85.60;;;;;;5017735;28;20085;-88
2022/03/20 00:35:39;;;;;;;29.55;12.85;;;5.10;85.10;;;;;;5017762;28;20034;-88
2022/03/20 00:38:06;;;;;;;27.45;13.13;;;5.10;84.40;;;;;;5017559;28;20121;-87
2022/03/20 00:40:32;;;;;;;28.85;13.68;;;5.10;84.60;;;;;;5017863;28;20030;-88
2022/03/20 00:42:58;;;;;;;26.45;13.07;;;5.00;84.00;;;;;;5017187;28;20038;-88
2022/03/20 00:45:24;;;;;;;29.15;13.32;;;5.10;83.70;;;;;;5004184;28;20078;-87
2022/03/20 00:47:50;;;;;;;28.60;12.93;;;5.00;83.80;;;;;;5007824;28;20026;-88
2022/03/20 00:50:16;;;;;;;28.52;13.07;;;5.00;83.90;;;;;;5015721;28;20019;-88
2022/03/20 00:52:42;;;;;;;24.42;11.80;;;5.00;84.10;;;;;;5012480;28;20082;-89
2022/03/20 00:55:08;;;;;;;26.70;12.75;;;4.90;83.90;;;;;;5003164;28;20039;-88
2022/03/20 00:57:34;;;;;;;29.05;13.10;;;4.90;84.00;;;;;;5001876;28;20121;-87
2022/03/20 01:00:00;;;;;;;31.05;13.00;;;4.90;83.80;;;;;;5014833;28;20019;-89
2022/03/20 01:02:26;;;;;;;27.42;12.90;;;4.80;82.40;;;;;;5003540;28;20038;-89
2022/03/20 01:04:52;;;;;;;25.48;12.18;;;4.80;83.20;;;;;;5007085;28;20113;-89
2022/03/20 01:07:17;;;;;;;28.92;12.68;;;4.80;83.30;;;;;;5008064;28;20034;-89
2022/03/20 01:09:43;;;;;;;25.42;12.88;;;4.80;83.40;;;;;;5007396;28;20022;-88
2022/03/20 01:12:09;;;;;;;24.30;11.63;;;4.80;82.30;;;;;;5005335;28;20033;-89
2022/03/20 01:14:35;;;;;;;25.67;12.48;;;4.80;82.50;;;;;;5001488;28;20483;-89
2022/03/20 01:17:02;;;;;;;26.70;11.70;;;4.80;82.00;;;;;;4983275;28;20030;-89
2022/03/20 01:19:28;;;;;;;30.67;12.02;;;4.80;83.00;;;;;;4998923;28;20109;-88
2022/03/20 01:21:55;;;;;;;23.95;11.43;;;4.70;83.00;;;;;;4999850;28;20053;-88
2022/03/20 01:24:22;;;;;;;26.20;11.18;;;4.70;83.00;;;;;;5001161;28;20054;-88
2022/03/20 01:26:48;;;;;;;26.95;12.75;;;4.60;83.50;;;;;;5002459;28;20037;-89
2022/03/20 01:29:14;;;;;;;21.02;11.70;;;4.60;83.60;;;;;;5003010;28;20026;-88
2022/03/20 01:31:40;;;;;;;28.67;11.40;;;4.60;83.60;;;;;;5001662;28;20073;-88
2022/03/20 01:34:06;;;;;;;25.73;11.55;;;4.50;84.30;;;;;;5005490;28;20105;-88
2022/03/20 01:36:32;;;;;;;23.50;11.57;;;4.50;83.30;;;;;;5010098;28;20041;-90
2022/03/20 01:38:58;;;;;;;24.42;10.77;;;4.50;82.90;;;;;;5009415;28;20034;-89
2022/03/20 01:41:25;;;;;;;25.92;11.45;;;4.40;83.00;;;;;;5008379;28;20113;-88
2022/03/20 01:43:55;;;;;;;26.95;12.13;;;4.40;83.10;;;;;;5020269;28;20030;-88
2022/03/20 01:46:22;;;;;;;26.73;11.77;;;4.40;83.10;;;;;;4992828;28;20038;-88
2022/03/20 01:48:49;;;;;;;28.92;11.70;;;4.30;82.80;;;;;;5012753;28;20058;-88
2022/03/20 01:51:16;;;;;;;26.67;11.55;;;4.30;82.80;;;;;;5011669;28;20038;-87
2022/03/20 01:53:42;;;;;;;28.80;12.73;;;4.30;82.10;;;;;;5007402;28;20026;-89
2022/03/20 01:56:08;;;;;;;22.33;12.00;;;4.30;82.60;;;;;;5009963;28;20042;-89
2022/03/20 01:58:34;;;;;;;26.05;11.43;;;4.20;82.50;;;;;;5009331;28;20050;-88
2022/03/20 02:01:02;;;;;;;29.65;12.02;;;4.20;82.60;;;;;;5010666;28;20045;-87
2022/03/20 02:03:29;;;;;;;25.67;11.68;;;4.20;82.20;;;;;;5010144;28;20022;-88
2022/03/20 02:05:56;;;;;;;24.08;11.00;;;4.10;82.00;;;;;;5009546;28;20026;-87
2022/03/20 02:08:26;;;;;;;25.80;12.55;;;4.10;82.90;;;;;;5008238;28;20398;-87
2022/03/20 02:10:52;;;;;;;30.38;12.13;;;4.00;83.00;;;;;;5007082;28;20027;-88
2022/03/20 02:13:24;;;;;;;25.45;12.10;;;4.00;83.30;;;;;;5007208;28;20041;-88
2022/03/20 02:15:53;;;;;;;25.15;12.20;;;4.00;83.10;;;;;;5007446;28;20053;-87
2022/03/20 02:18:19;;;;;;;26.48;11.65;;;3.90;82.60;;;;;;5006328;28;20026;-88
2022/03/20 02:20:48;;;;;;;22.23;11.48;;;3.80;82.50;;;;;;5007404;28;20030;-89
2022/03/20 02:23:15;;;;;;;24.48;11.18;;;3.80;83.00;;;;;;5006708;28;20026;-87
2022/03/20 02:25:51;;;;;;;22.65;11.57;;;3.80;83.20;;;;;;5018999;28;20046;-87
2022/03/20 02:28:17;;;;;;;26.40;11.27;;;3.70;83.60;;;;;;5020541;28;20030;-88
2022/03/20 02:30:46;;;;;;;25.63;10.70;;;3.60;81.90;;;;;;4989753;28;20044;-89
2022/03/20 02:33:12;;;;;;;27.50;11.15;;;3.60;81.80;;;;;;5003749;28;20030;-88
2022/03/20 02:35:39;;;;;;;23.10;11.85;;;3.60;82.00;;;;;;5005333;28;20398;-87
2022/03/20 02:38:10;;;;;;;22.08;11.35;;;3.50;82.60;;;;;;5005924;28;20037;-88
2022/03/20 02:40:36;;;;;;;25.52;12.15;;;3.40;83.20;;;;;;5006145;28;20041;-88
2022/03/20 02:43:05;;;;;;;27.98;12.00;;;3.40;83.50;;;;;;5005560;28;20498;-89
2022/03/20 02:45:31;;;;;;;30.65;11.88;;;3.30;83.20;;;;;;5015794;28;20033;-87
2022/03/20 02:48:00;;;;;;;24.73;12.15;;;3.20;83.10;;;;;;4998010;28;20032;-89
2022/03/20 02:50:32;;;;;;;26.92;11.77;;;3.20;83.20;;;;;;5006365;28;20038;-89
2022/03/20 02:53:03;;;;;;;26.05;11.40;;;3.20;83.40;;;;;;5006142;28;20042;-88
2022/03/20 02:55:37;;;;;;;25.38;12.05;;;3.20;83.20;;;;;;5009158;28;20038;-89
2022/03/20 02:58:07;;;;;;;28.07;11.73;;;3.10;83.50;;;;;;5016225;28;20034;-87
2022/03/20 03:00:34;;;;;;;26.45;12.20;;;3.10;84.00;;;;;;5048276;23;20038;-85
2022/03/20 03:03:01;;;;;;;26.48;11.60;;;3.10;84.30;;;;;;5056595;28;20010;-83
2022/03/20 03:05:29;;;;;;;27.60;12.00;;;3.10;84.40;;;;;;5057323;28;20090;-83
2022/03/20 03:11:02;;;;;;;30.52;12.73;;;3.00;84.10;;;;;;5057266;28;20386;-83
2022/03/20 03:13:36;;;;;;;24.58;11.80;;;3.00;83.90;;;;;;5057452;28;20017;-82
2022/03/20 03:16:09;;;;;;;26.70;12.10;;;3.00;83.40;;;;;;5039809;28;20029;-82
2022/03/20 03:18:36;;;;;;;25.55;11.43;;;3.00;83.40;;;;;;5039350;28;20057;-83
2022/03/20 03:21:03;;;;;;;24.95;11.50;;;3.00;83.00;;;;;;5038170;28;20060;-83
2022/03/20 03:23:29;;;;;;;23.63;11.18;;;2.90;82.30;;;;;;5055704;28;20049;-85
2022/03/20 03:25:56;;;;;;;23.85;11.68;;;3.00;82.20;;;;;;5054517;28;20021;-83
2022/03/20 03:28:34;;;;;;;24.45;11.85;;;2.90;82.00;;;;;;5053732;28;20013;-84
2022/03/20 03:31:01;;;;;;;29.70;12.15;;;3.00;82.00;;;;;;5053971;28;20033;-83
2022/03/20 03:33:27;;;;;;;27.80;11.85;;;2.90;82.20;;;;;;5045398;28;20097;-84
2022/03/20 03:35:54;;;;;;;24.08;11.27;;;2.90;82.30;;;;;;5029996;28;20034;-83
2022/03/20 03:38:30;;;;;;;20.65;11.05;;;2.90;82.40;;;;;;5049326;28;20020;-85
2022/03/20 03:40:59;;;;;;;26.95;12.57;;;2.90;82.30;;;;;;5033393;28;20046;-84
2022/03/20 03:43:24;;;;;;;26.60;11.52;;;2.90;82.90;;;;;;5053593;28;20052;-84
2022/03/20 03:45:53;;;;;;;23.08;11.10;;;2.90;82.90;;;;;;5039182;28;20520;-81
2022/03/20 03:48:19;;;;;;;22.70;10.93;;;2.90;83.00;;;;;;5051983;28;20027;-83
2022/03/20 03:50:47;;;;;;;24.05;11.77;;;2.80;83.20;;;;;;5039133;28;20101;-82
2022/03/20 03:53:14;;;;;;;22.20;11.15;;;2.90;82.90;;;;;;5052077;28;20032;-82
2022/03/20 03:55:44;;;;;;;27.58;10.68;;;2.90;82.60;;;;;;5052699;28;20033;-83
2022/03/20 03:58:12;;;;;;;25.75;11.10;;;2.80;81.90;;;;;;5049774;28;20039;-85
2022/03/20 04:00:39;;;;;;;19.58;9.25;;;2.80;81.80;;;;;;5035060;28;20096;-82
2022/03/20 04:03:05;;;;;;;27.90;10.55;;;2.80;81.40;;;;;;5053732;28;20097;-82
2022/03/20 04:05:31;;;;;;;21.85;10.63;;;2.90;80.80;;;;;;5053798;28;20022;-82
2022/03/20 04:07:57;;;;;;;23.30;10.07;;;2.80;81.10;;;;;;5053283;28;20022;-82
2022/03/20 04:10:23;;;;;;;23.10;10.38;;;2.90;81.70;;;;;;5034348;28;20072;-85
2022/03/20 04:12:50;;;;;;;21.17;9.63;;;2.90;82.10;;;;;;5047850;28;20033;-82
2022/03/20 04:15:21;;;;;;;20.23;10.15;;;2.90;81.90;;;;;;5048617;28;20024;-85
2022/03/20 04:17:48;;;;;;;26.38;10.52;;;2.90;83.10;;;;;;5048677;28;20025;-84
2022/03/20 04:20:14;;;;;;;18.85;9.20;;;2.80;82.50;;;;;;5049631;28;20456;-84
2022/03/20 04:23:42;;;;;;;25.67;10.80;;;2.80;82.70;;;;;;5048734;28;20025;-83
2022/03/20 04:25:29;;;;;;;27.52;10.80;;;2.80;82.90;;;;;;5049805;28;20029;-84
2022/03/20 04:27:56;;;;;;;23.38;10.95;;;2.80;83.10;;;;;;5048428;28;20021;-83
2022/03/20 04:30:32;;;;;;;19.73;10.13;;;2.70;82.70;;;;;;5043681;28;20033;-85
2022/03/20 04:32:58;;;;;;;28.13;10.85;;;2.70;82.80;;;;;;5043712;28;20029;-82
2022/03/20 04:35:24;;;;;;;27.73;11.02;;;2.70;82.70;;;;;;5043516;28;20033;-84
2022/03/20 04:37:55;;;;;;;22.33;10.55;;;2.70;82.70;;;;;;5043309;28;20033;-83
2022/03/20 04:40:21;;;;;;;24.50;10.93;;;2.70;82.70;;;;;;5026192;28;20063;-84
2022/03/20 04:42:49;;;;;;;21.90;9.93;;;2.70;82.80;;;;;;5048735;28;20022;-83
2022/03/20 04:45:15;;;;;;;21.00;9.95;;;2.60;83.20;;;;;;5029898;28;20025;-84
2022/03/20 04:58:40;;;;;;;25.85;10.65;;;2.50;82.10;;;;;;5053769;28;20030;-83
2022/03/20 05:01:06;;;;;;;20.05;10.32;;;2.40;81.90;;;;;;5057238;28;20060;-83
2022/03/20 05:03:34;;;;;;;24.65;11.40;;;2.40;82.20;;;;;;5024924;28;20026;-81
2022/03/20 05:06:01;;;;;;;25.35;10.10;;;2.40;81.70;;;;;;5060296;28;20037;-81
2022/03/20 05:08:26;;;;;;;25.00;9.95;;;2.40;82.10;;;;;;5061998;28;20013;-81
2022/03/20 05:13:36;;;;;;;22.90;10.63;;;2.30;82.90;;;;;;5061316;28;20037;-83
2022/03/20 05:16:02;;;;;;;22.95;9.93;;;2.30;82.90;;;;;;5059179;28;20034;-84
2022/03/20 05:18:29;;;;;;;17.63;9.55;;;2.30;82.90;;;;;;5042408;28;20041;-82
2022/03/20 05:20:55;;;;;;;33.85;10.50;;;2.30;83.00;;;;;;5059131;28;20054;-84
2022/03/20 05:23:22;;;;;;;22.52;10.30;;;2.30;83.20;;;;;;5057215;28;20033;-83
2022/03/20 05:25:47;;;;;;;23.63;10.23;;;2.30;83.10;;;;;;5055140;28;20017;-84
2022/03/20 05:28:15;;;;;;;25.27;10.50;;;2.40;83.20;;;;;;5035772;28;20046;-85
2022/03/20 05:30:42;;;;;;;21.85;10.55;;;2.40;83.00;;;;;;5036871;28;20040;-85
2022/03/20 05:33:12;;;;;;;25.02;10.25;;;2.40;82.60;;;;;;5052562;28;20064;-84
2022/03/20 05:35:39;;;;;;;22.40;9.68;;;2.40;81.60;;;;;;5050719;28;20022;-84
2022/03/20 05:38:08;;;;;;;24.83;10.50;;;2.40;81.50;;;;;;5047694;28;20040;-84
2022/03/20 05:40:34;;;;;;;24.83;10.85;;;2.50;81.30;;;;;;5048826;28;20033;-85
2022/03/20 05:43:00;;;;;;;24.50;10.65;;;2.50;80.60;;;;;;5049335;28;20052;-85
2022/03/20 05:45:26;;;;;;;22.90;11.32;;;2.50;80.30;;;;;;5052160;28;20021;-85
2022/03/20 05:47:52;;;;;;;22.33;10.00;;;2.50;80.10;;;;;;5049564;28;20081;-85
2022/03/20 05:50:17;;;;;;;23.23;9.80;;;2.60;80.20;;;;;;5048353;28;20025;-85
2022/03/20 05:52:43;;;;;;;21.13;9.93;;;2.60;80.20;;;;;;5029097;28;20041;-86
2022/03/20 05:55:09;;;;;;;22.95;10.20;;;2.60;79.70;;;;;;5044904;28;20113;-84
2022/03/20 06:00:27;;;;;;;20.42;9.85;;;2.70;79.10;;;;;;5053631;28;20116;-84
2022/03/20 06:02:53;;;;;;;25.58;10.30;;;2.80;78.80;;;;;;5055806;28;20022;-86
2022/03/20 06:05:20;;;;;;;18.30;9.90;;;2.90;78.70;;;;;;5056477;28;20057;-84
2022/03/20 06:07:47;;;;;;;21.08;10.18;;;2.90;78.80;;;;;;5046766;28;20534;-83
2022/03/20 06:10:16;;;;;;;18.83;9.77;;;2.90;78.50;;;;;;5025047;28;20033;-84
2022/03/20 06:12:43;;;;;;;26.23;10.45;;;3.00;78.90;;;;;;5025130;28;20057;-86
2022/03/20 06:15:10;;;;;;;24.10;9.93;;;3.00;78.90;;;;;;5043261;28;20481;-84
2022/03/20 06:17:41;;;;;;;31.95;10.50;;;3.10;78.80;;;;;;5041896;28;20033;-84
2022/03/20 06:20:09;;;;;;;25.33;10.63;;;3.10;78.40;;;;;;5043825;28;20030;-83
2022/03/20 06:22:36;;;;;;;21.20;9.88;;;3.20;78.20;;;;;;5052124;28;20018;-84
2022/03/20 06:25:09;;;;;;;21.27;9.75;;;3.20;78.30;;;;;;5031607;28;20128;-85
2022/03/20 06:27:51;;;;;;;21.40;9.85;;;3.20;78.70;;;;;;5025302;28;20084;-85
2022/03/20 06:30:18;;;;;;;21.73;10.00;;;3.30;78.30;;;;;;5040145;28;20041;-83
2022/03/20 06:32:46;;;;;;;20.40;10.23;;;3.30;78.20;;;;;;5040304;28;20022;-85
2022/03/20 06:35:14;;;;;;;20.50;10.23;;;3.40;78.50;;;;;;5049946;28;20040;-85
2022/03/20 06:37:44;;;;;;;25.23;10.70;;;3.40;78.20;;;;;;5022907;28;20013;-83
2022/03/20 06:40:12;;;;;;;19.40;9.90;;;3.50;77.90;;;;;;5059676;28;20042;-83
2022/03/20 06:42:38;;;;;;;22.80;10.82;;;3.60;78.10;;;;;;5024986;28;20021;-82
2022/03/20 06:45:08;;;;;;;20.45;9.85;;;3.70;78.00;;;;;;5055379;28;20029;-84
2022/03/20 06:47:36;;;;;;;20.27;10.00;;;3.80;77.40;;;;;;5031358;28;20029;-86
2022/03/20 06:50:06;;;;;;;23.30;10.68;;;3.90;77.30;;;;;;5043573;28;20029;-86
2022/03/20 06:52:32;;;;;;;22.00;10.10;;;3.90;76.80;;;;;;5029092;28;20051;-85
2022/03/20 06:55:01;;;;;;;21.42;10.32;;;4.00;76.50;;;;;;5041368;28;20010;-84
2022/03/20 06:57:30;;;;;;;22.75;10.45;;;4.00;76.30;;;;;;5059310;28;20018;-84
2022/03/20 06:59:59;;;;;;;22.85;10.55;;;4.00;76.20;;;;;;5058493;28;20038;-83
2022/03/20 07:02:27;;;;;;;20.33;10.18;;;4.10;76.30;;;;;;5025043;28;20040;-83
2022/03/20 07:04:53;;;;;;;20.58;9.43;;;4.10;76.90;;;;;;5057908;28;20010;-85
2022/03/20 07:07:20;;;;;;;23.75;10.02;;;4.30;77.00;;;;;;5039440;28;20041;-83
2022/03/20 07:09:46;;;;;;;23.15;10.07;;;4.30;76.50;;;;;;5013847;28;20080;-85
2022/03/20 07:12:12;;;;;;;20.17;10.02;;;4.40;75.30;;;;;;5030192;28;20026;-85
2022/03/20 07:14:40;;;;;;;18.27;9.90;;;4.40;75.10;;;;;;5057294;28;20027;-85
2022/03/20 07:17:16;;;;;;;21.52;10.68;;;4.40;75.50;;;;;;5031405;28;20060;-86
2022/03/20 07:19:43;;;;;;;23.83;10.07;;;4.50;75.90;;;;;;5045774;28;20044;-86
2022/03/20 07:22:11;;;;;;;24.08;9.55;;;4.60;75.50;;;;;;5029553;28;20128;-86
2022/03/20 07:24:41;;;;;;;22.25;10.25;;;4.60;74.90;;;;;;5046854;28;20041;-85
2022/03/20 07:29:53;;;;;;;22.85;10.27;;;4.70;74.20;;;;;;5047169;28;20033;-85
2022/03/20 07:32:19;;;;;;;19.92;9.80;;;4.70;74.20;;;;;;5044126;28;20022;-87
2022/03/20 07:34:45;;;;;;;21.67;10.40;;;4.80;74.20;;;;;;5010364;28;20037;-86
2022/03/20 07:37:16;;;;;;;18.98;10.05;;;4.90;74.70;;;;;;5013743;28;20091;-85
2022/03/20 07:39:46;;;;;;;22.17;9.63;;;5.00;74.80;;;;;;5029438;28;20112;-87
2022/03/20 07:42:17;;;;;;;22.17;10.05;;;5.10;74.50;;;;;;5048382;28;20056;-86
2022/03/20 07:44:43;;;;;;;23.80;10.68;;;5.30;74.70;;;;;;5049349;28;20076;-85
2022/03/20 07:47:17;;;;;;;19.35;9.65;;;5.50;74.40;;;;;;5049130;28;20037;-86
2022/03/20 07:49:44;;;;;;;19.95;9.52;;;5.40;73.00;;;;;;5030918;28;20033;-85
2022/03/20 07:52:09;;;;;;;24.00;10.93;;;5.40;72.80;;;;;;5047287;28;20385;-85
2022/03/20 07:54:38;;;;;;;21.48;9.45;;;5.50;72.60;;;;;;5047218;28;20037;-83
2022/03/20 07:57:05;;;;;;;20.98;9.98;;;5.40;72.00;;;;;;5047328;28;20029;-86
2022/03/20 07:59:31;;;;;;;20.50;9.65;;;5.50;72.70;;;;;;5031475;28;20033;-86
2022/03/20 08:01:57;;;;;;;19.17;10.02;;;5.60;71.60;;;;;;5051290;28;20032;-83
2022/03/20 08:04:24;;;;;;;21.77;10.60;;;5.70;71.60;;;;;;5051592;28;20541;-86
2022/03/20 08:06:50;;;;;;;24.05;10.82;;;5.70;71.10;;;;;;5047648;28;20022;-86
2022/03/20 08:09:17;;;;;;;18.92;10.40;;;5.80;71.00;;;;;;5050459;28;20029;-86
2022/03/20 08:11:42;;;;;;;21.88;10.43;;;5.80;70.90;;;;;;5055696;28;20024;-83
2022/03/20 08:14:09;;;;;;;23.67;10.52;;;5.70;70.90;;;;;;5057252;28;20196;-84
2022/03/20 08:16:39;;;;;;;20.75;10.15;;;5.70;71.70;;;;;;5056492;28;20010;-84
2022/03/20 08:19:08;;;;;;;21.58;10.52;;;5.90;71.40;;;;;;5053091;28;20052;-85
2022/03/20 08:21:34;;;;;;;20.65;10.20;;;5.80;70.70;;;;;;5032751;28;20017;-86
2022/03/20 08:24:03;;;;;;;22.95;11.13;;;5.80;71.50;;;;;;5056111;28;20045;-85
2022/03/20 08:26:33;;;;;;;25.83;11.25;;;5.90;72.10;;;;;;5055121;28;20340;-87
2022/03/20 08:28:59;;;;;;;21.77;10.13;;;6.10;72.00;;;;;;5052144;28;20060;-85
2022/03/20 08:31:29;;;;;;;23.42;11.23;;;6.20;72.00;;;;;;5052500;28;20031;-85
2022/03/20 08:33:59;;;;;;;22.63;11.02;;;6.20;71.60;;;;;;5055284;28;20053;-86
2022/03/20 08:36:25;;;;;;;27.38;11.60;;;6.30;71.30;;;;;;5054665;28;20025;-85
2022/03/20 08:38:52;;;;;;;24.67;11.57;;;6.40;71.40;;;;;;5020498;28;20022;-86
2022/03/20 08:41:19;;;;;;;26.42;11.07;;;6.50;71.10;;;;;;5033854;28;20034;-85
2022/03/20 08:43:45;;;;;;;31.50;11.63;;;6.50;71.30;;;;;;5051246;28;20029;-85
2022/03/20 08:46:10;;;;;;;25.20;11.63;;;6.60;71.60;;;;;;5051452;28;20081;-84
2022/03/20 08:48:36;;;;;;;26.50;11.18;;;6.70;72.30;;;;;;5049930;28;20021;-85
2022/03/20 08:51:02;;;;;;;23.77;10.98;;;6.60;71.80;;;;;;5030590;28;20253;-83
2022/03/20 08:53:29;;;;;;;26.00;11.65;;;6.60;71.60;;;;;;5050501;28;20124;-85
2022/03/20 08:55:55;;;;;;;23.05;11.35;;;6.80;71.80;;;;;;5051641;28;20030;-85
2022/03/20 08:58:20;;;;;;;22.30;11.55;;;6.90;71.70;;;;;;5050398;28;20053;-86
2022/03/20 09:00:46;;;;;;;22.52;11.13;;;6.80;71.70;;;;;;5059502;23;20061;-86
2022/03/20 09:03:13;;;;;;;24.35;12.10;;;6.90;72.20;;;;;;5071214;28;20032;-86
2022/03/20 09:05:39;;;;;;;21.58;11.27;;;7.00;71.70;;;;;;5072240;28;20025;-84
2022/03/20 09:08:05;;;;;;;21.73;10.93;;;7.30;71.90;;;;;;5067992;28;20029;-85
2022/03/20 09:10:32;;;;;;;29.35;12.30;;;7.60;71.00;;;;;;5061281;28;20105;-86
2022/03/20 09:13:00;;;;;;;26.65;12.25;;;7.90;70.20;;;;;;5044506;28;20024;-89
2022/03/20 09:15:28;;;;;;;25.73;12.32;;;8.30;69.90;;;;;;5043653;28;20088;-86
2022/03/20 09:20:41;;;;;;;22.48;11.93;;;9.40;67.90;;;;;;5042071;28;20032;-88
2022/03/20 09:23:08;;;;;;;25.80;12.90;;;9.70;66.80;;;;;;5046897;28;20022;-88
2022/03/20 09:25:34;;;;;;;22.58;12.65;;;10.00;66.00;;;;;;5042606;28;20090;-87
2022/03/20 09:28:02;;;;;;;23.23;12.48;;;10.50;64.90;;;;;;5051524;28;20021;-85
2022/03/20 09:30:28;;;;;;;20.70;11.63;;;11.10;63.50;;;;;;5020612;28;20070;-87
2022/03/20 09:32:55;;;;;;;22.45;12.50;;;11.30;63.30;;;;;;5040895;28;20082;-85
2022/03/20 09:35:21;;;;;;;24.75;12.63;;;11.10;62.50;;;;;;5039727;28;20104;-87
2022/03/20 09:37:47;;;;;;;20.30;11.32;;;11.40;62.30;;;;;;5040996;28;20021;-87
2022/03/20 09:40:14;;;;;;;22.63;12.75;;;11.70;61.10;;;;;;5043299;28;20033;-88
2022/03/20 09:42:41;;;;;;;23.27;12.88;;;12.00;60.70;;;;;;5047532;28;20088;-87
2022/03/20 09:45:11;;;;;;;21.70;12.15;;;12.20;60.00;;;;;;5045664;28;20030;-89
2022/03/20 09:47:39;;;;;;;26.65;12.07;;;12.30;59.10;;;;;;5045044;28;20032;-88
2022/03/20 09:50:06;;;;;;;23.27;12.68;;;11.90;59.30;;;;;;5047471;28;20029;-85
2022/03/20 09:52:33;;;;;;;23.95;12.20;;;11.80;59.90;;;;;;5049350;28;20401;-86
2022/03/20 09:54:59;;;;;;;24.35;12.05;;;11.80;59.20;;;;;;5049131;28;20021;-88
2022/03/20 09:57:29;;;;;;;27.67;13.05;;;11.90;58.60;;;;;;5049943;28;20040;-86
2022/03/20 09:59:56;;;;;;;26.35;12.55;;;11.90;58.90;;;;;;5051413;28;21058;-89
2022/03/20 10:02:29;;;;;;;25.35;12.38;;;11.80;59.30;;;;;;5050106;28;20021;-88
2022/03/20 10:04:57;;;;;;;23.23;12.93;;;11.70;58.80;;;;;;5054539;28;20093;-88
2022/03/20 10:07:26;;;;;;;21.50;12.43;;;11.50;59.10;;;;;;5053011;28;20045;-86
2022/03/20 10:10:13;;;;;;;24.95;12.32;;;11.70;58.90;;;;;;5055222;28;20093;-85
2022/03/20 10:12:52;;;;;;;23.50;12.60;;;11.80;58.10;;;;;;5052845;28;20030;-88
2022/03/20 10:15:38;;;;;;;23.83;12.27;;;11.50;58.70;;;;;;5052271;28;20030;-84
2022/03/20 10:18:17;;;;;;;23.42;12.30;;;11.50;58.70;;;;;;5049818;28;20029;-85
2022/03/20 10:20:51;;;;;;;25.08;12.43;;;11.60;58.70;;;;;;5047343;28;20029;-86
2022/03/20 10:23:36;;;;;;;29.33;14.40;;;11.30;58.20;;;;;;5049984;28;20057;-83
2022/03/20 10:26:05;;;;;;;26.67;13.13;;;11.10;58.20;;;;;;5046776;28;20037;-85
2022/03/20 10:28:45;;;;;;;21.63;13.07;;;11.00;59.00;;;;;;5049655;28;20029;-83
2022/03/20 10:31:17;;;;;;;25.55;13.60;;;11.30;58.20;;;;;;5038905;28;20025;-83
2022/03/20 10:33:46;;;;;;;22.60;12.02;;;11.90;57.70;;;;;;5040676;28;20104;-83
2022/03/20 10:36:18;;;;;;;26.00;12.68;;;12.80;56.80;;;;;;5040220;28;20414;-84
2022/03/20 10:38:46;;;;;;;25.80;12.95;;;13.10;56.60;;;;;;5043087;28;20107;-85
2022/03/20 10:41:24;;;;;;;24.25;13.38;;;12.90;56.70;;;;;;5039418;28;20041;-83
2022/03/20 10:43:51;;;;;;;20.80;12.10;;;12.60;56.50;;;;;;5046618;28;20030;-83
2022/03/20 10:46:23;;;;;;;28.50;13.93;;;12.70;56.40;;;;;;5048961;28;20056;-83
2022/03/20 10:48:52;;;;;;;26.17;14.13;;;12.30;55.60;;;;;;5052486;28;20028;-83
2022/03/20 10:51:39;;;;;;;27.77;15.05;;;12.30;57.20;;;;;;5055363;28;20036;-83
2022/03/20 10:54:20;;;;;;;26.08;14.57;;;13.80;55.80;;;;;;5051468;28;20029;-84
2022/03/20 10:57:02;;;;;;;27.92;14.88;;;14.20;54.60;;;;;;5049003;28;20060;-82
2022/03/20 10:59:30;;;;;;;27.08;14.73;;;13.50;54.70;;;;;;5049236;28;20097;-89
2022/03/20 11:01:58;;;;;;;29.00;14.48;;;12.70;55.70;;;;;;5055647;28;20045;-82
2022/03/20 11:04:24;;;;;;;25.10;12.38;;;12.30;56.40;;;;;;5056395;28;20286;-82
2022/03/20 11:06:57;;;;;;;23.23;11.98;;;12.10;56.30;;;;;;5055808;28;20021;-84
2022/03/20 11:09:26;;;;;;;21.70;12.55;;;11.90;56.40;;;;;;5024047;28;20067;-83
2022/03/20 11:11:54;;;;;;;27.88;13.15;;;11.70;57.30;;;;;;5041413;28;20087;-83
2022/03/20 11:14:25;;;;;;;26.80;13.02;;;11.80;56.90;;;;;;5056825;28;20022;-83
2022/03/20 11:17:02;;;;;;;21.70;12.30;;;11.70;56.90;;;;;;5057740;28;20029;-81
2022/03/20 11:19:30;;;;;;;23.80;12.25;;;11.60;57.70;;;;;;5057751;28;20027;-81
2022/03/20 11:22:05;;;;;;;22.23;12.55;;;11.60;58.10;;;;;;5057056;28;20067;-82
2022/03/20 11:24:32;;;;;;;27.63;13.80;;;11.90;57.00;;;;;;5056818;28;20093;-80
2022/03/20 11:27:01;;;;;;;24.45;12.95;;;12.00;57.30;;;;;;5049915;28;20033;-89
2022/03/20 11:29:31;;;;;;;21.02;11.50;;;12.10;56.80;;;;;;5044748;28;20037;-83
2022/03/20 11:32:01;;;;;;;21.40;12.38;;;12.50;57.10;;;;;;5045487;28;20121;-82
2022/03/20 11:34:29;;;;;;;24.40;11.90;;;12.90;56.10;;;;;;5043942;28;20108;-83
2022/03/20 11:37:09;;;;;;;23.55;12.13;;;13.30;55.20;;;;;;5043008;28;20037;-82
2022/03/20 11:39:59;;;;;;;23.77;12.05;;;13.60;54.80;;;;;;5040131;28;20068;-82
2022/03/20 11:42:27;;;;;;;18.92;12.10;;;14.20;54.30;;;;;;5048227;28;20056;-82
2022/03/20 11:45:18;;;;;;;28.10;14.45;;;14.80;53.50;;;;;;5055036;28;20057;-82
2022/03/20 11:47:49;;;;;;;20.38;12.77;;;15.10;53.30;;;;;;5041945;28;20061;-82
2022/03/20 11:50:17;;;;;;;21.98;11.45;;;14.90;53.40;;;;;;5051961;28;20036;-83
2022/03/20 11:53:04;;;;;;;27.67;12.27;;;15.00;54.20;;;;;;5050925;28;20045;-82
2022/03/20 11:55:30;;;;;;;24.95;12.70;;;14.80;53.40;;;;;;5047716;28;20508;-82
2022/03/20 11:58:00;;;;;;;31.88;12.80;;;14.90;52.90;;;;;;5048648;28;20025;-83
2022/03/20 12:00:32;;;;;;;19.90;11.63;;;14.50;53.30;;;;;;5045082;28;20104;-82
2022/03/20 12:03:13;;;;;;;19.95;12.02;;;14.40;53.70;;;;;;5038823;28;20033;-82
2022/03/20 12:05:42;;;;;;;21.30;12.90;;;15.10;53.40;;;;;;5038537;28;20402;-82
2022/03/20 12:08:25;;;;;;;21.95;12.00;;;16.20;52.20;;;;;;5041349;28;20085;-84
2022/03/20 12:11:10;;;;;;;21.55;11.90;;;16.80;51.10;;;;;;5041952;28;20123;-82
2022/03/20 12:13:47;;;;;;;20.85;11.43;;;17.30;50.60;;;;;;5039004;28;20037;-83
2022/03/20 12:16:42;;;;;;;18.80;10.82;;;17.80;50.20;;;;;;5039292;28;20168;-82
2022/03/20 12:19:11;;;;;;;16.20;11.05;;;18.00;48.90;;;;;;5039825;28;20030;-83
2022/03/20 12:22:00;;;;;;;21.80;11.23;;;17.80;48.00;;;;;;5039823;28;20072;-83
2022/03/20 12:24:34;;;;;;;16.33;10.88;;;18.60;46.10;;;;;;5043494;28;20053;-81
2022/03/20 12:27:22;;;;;;;20.85;11.65;;;18.00;46.60;;;;;;5042629;28;20033;-83
2022/03/20 12:29:51;;;;;;;21.27;10.30;;;18.40;46.90;;;;;;5039634;28;20033;-83
2022/03/20 12:32:18;;;;;;;15.95;10.38;;;17.80;46.50;;;;;;5037715;28;20500;-83
2022/03/20 12:35:05;;;;;;;27.52;16.58;;;17.70;46.80;;;;;;5038514;28;20427;-82
2022/03/20 12:37:36;;;;;;;18.98;11.27;;;17.60;46.40;;;;;;5038141;28;20030;-82
2022/03/20 12:40:05;;;;;;;21.13;9.93;;;18.20;46.30;;;;;;5047969;28;20053;-82
2022/03/20 12:42:32;;;;;;;24.92;10.30;;;18.80;45.50;;;;;;5047887;28;20053;-82
2022/03/20 12:44:59;;;;;;;16.67;10.32;;;18.80;45.20;;;;;;5041377;28;20049;-83
2022/03/20 12:47:27;;;;;;;18.52;11.13;;;18.80;44.50;;;;;;5041484;28;20051;-83
2022/03/20 12:50:02;;;;;;;22.20;10.63;;;19.10;44.50;;;;;;5046359;28;20036;-82
2022/03/20 12:52:31;;;;;;;17.88;10.40;;;18.70;44.50;;;;;;5046520;28;20061;-82
2022/03/20 12:55:08;;;;;;;21.33;8.85;;;19.70;43.70;;;;;;5047122;28;20029;-83
2022/03/20 12:57:42;;;;;;;14.32;9.82;;;20.70;43.30;;;;;;5043772;28;20230;-83
2022/03/20 13:00:17;;;;;;;12.57;8.60;;;20.90;42.40;;;;;;5046853;28;20049;-81
2022/03/20 13:03:00;;;;;;;;;;;20.80;42.10;;;;;;5047393;28;20029;-82
2022/03/20 13:05:28;;;;;;;19.67;9.43;;;20.50;41.90;;;;;;5047196;28;19981;-80
2022/03/20 13:07:55;;;;;;;18.50;9.98;;;19.90;42.20;;;;;;5048319;28;20029;-82
2022/03/20 13:10:23;;;;;;;14.38;9.95;;;19.80;41.90;;;;;;5046533;28;20397;-82